Time;durP1;ratioP1;P1;durP2;ratioP2;P2;SDS_P1;SDS_P2;PMS_P1;PMS_P2;Temp;Humidity;BMP_temperature;BMP_pressure;BME280_temperature;BME280_humidity;BME280_pressure;Samples;Min_cycle;Max_cycle;Signal;HPM_P1;HPM_P2
2023/12/08 00:02:07;;;;;;;0.40;0.40;;;3.00;98.50;;;;;;4973071;28;20204;-61
2023/12/08 00:04:33;;;;;;;0.30;0.30;;;3.10;98.40;;;;;;4973261;28;20184;-61
2023/12/08 00:06:59;;;;;;;0.30;0.30;;;3.10;98.60;;;;;;4973003;28;20185;-62
2023/12/08 00:09:24;;;;;;;0.30;0.30;;;3.00;98.20;;;;;;4972643;28;20475;-61
2023/12/08 00:11:50;;;;;;;0.50;0.50;;;3.00;98.30;;;;;;4972875;28;20234;-61
2023/12/08 00:14:16;;;;;;;0.40;0.40;;;3.00;98.40;;;;;;4972921;28;20208;-61
2023/12/08 00:16:41;;;;;;;0.50;0.50;;;2.90;98.40;;;;;;4973110;28;20199;-61
2023/12/08 00:19:09;;;;;;;0.50;0.50;;;3.00;98.70;;;;;;4972812;28;20209;-61
2023/12/08 00:21:34;;;;;;;0.30;0.30;;;3.00;98.50;;;;;;4972537;28;20251;-61
2023/12/08 00:24:00;;;;;;;0.63;0.50;;;3.10;98.50;;;;;;4973004;28;20207;-61
2023/12/08 00:26:25;;;;;;;0.40;0.40;;;3.20;98.40;;;;;;4972949;28;20164;-61
2023/12/08 00:28:51;;;;;;;0.40;0.40;;;3.20;98.20;;;;;;4972867;28;20207;-61
2023/12/08 00:31:17;;;;;;;0.40;0.40;;;3.20;98.10;;;;;;4972574;28;20581;-61
2023/12/08 00:33:43;;;;;;;0.70;0.70;;;3.10;98.20;;;;;;4971957;28;20682;-61
2023/12/08 00:36:16;;;;;;;0.30;0.30;;;3.10;98.40;;;;;;4972113;28;20726;-61
2023/12/08 00:38:45;;;;;;;0.30;0.30;;;3.20;98.40;;;;;;4972610;28;20674;-61
2023/12/08 00:41:10;;;;;;;0.40;0.40;;;3.20;98.50;;;;;;4972228;28;20176;-61
2023/12/08 00:43:36;;;;;;;0.40;0.40;;;3.20;98.50;;;;;;4972860;28;20191;-61
2023/12/08 00:46:03;;;;;;;0.40;0.40;;;3.20;98.60;;;;;;4972764;28;20272;-61
2023/12/08 00:48:29;;;;;;;0.40;0.40;;;3.20;98.50;;;;;;4972454;28;20213;-61
2023/12/08 00:50:55;;;;;;;0.60;0.60;;;3.20;98.40;;;;;;4972346;28;20173;-61
2023/12/08 00:53:20;;;;;;;1.10;1.10;;;3.20;98.40;;;;;;4972372;28;20547;-61
2023/12/08 00:55:46;;;;;;;0.30;0.30;;;3.20;98.40;;;;;;4972615;28;20168;-61
2023/12/08 00:58:14;;;;;;;0.30;0.30;;;3.20;98.20;;;;;;4972539;28;20188;-61
2023/12/08 01:00:40;;;;;;;0.30;0.30;;;3.10;98.10;;;;;;4972330;28;20467;-61
2023/12/08 01:03:06;;;;;;;0.43;0.43;;;3.10;98.10;;;;;;4971668;28;20176;-61
2023/12/08 01:05:31;;;;;;;3.00;0.77;;;2.90;98.20;;;;;;4972611;28;20173;-61
2023/12/08 01:07:57;;;;;;;0.50;0.50;;;2.90;98.40;;;;;;4972453;28;20200;-61
2023/12/08 01:10:22;;;;;;;0.40;0.40;;;2.80;98.50;;;;;;4972884;28;20643;-61
2023/12/08 01:12:48;;;;;;;0.30;0.30;;;2.80;98.60;;;;;;4976420;28;20177;-61
2023/12/08 01:15:14;;;;;;;0.40;0.40;;;2.80;98.70;;;;;;4976449;28;20275;-61
2023/12/08 01:17:39;;;;;;;0.40;0.40;;;2.80;98.60;;;;;;4976011;28;20604;-61
2023/12/08 01:20:07;;;;;;;0.40;0.40;;;2.80;98.70;;;;;;4976035;28;20180;-61
2023/12/08 01:22:33;;;;;;;0.40;0.40;;;2.70;98.70;;;;;;4976430;28;20173;-61
2023/12/08 01:24:59;;;;;;;0.38;0.38;;;2.60;98.90;;;;;;4975075;28;20188;-61
2023/12/08 01:27:25;;;;;;;0.40;0.40;;;2.70;99.10;;;;;;4976174;28;20180;-61
2023/12/08 01:29:51;;;;;;;0.50;0.50;;;2.80;99.00;;;;;;4975798;28;20196;-61
2023/12/08 01:32:17;;;;;;;0.40;0.40;;;2.80;98.80;;;;;;4975764;28;20192;-60
2023/12/08 01:34:43;;;;;;;0.32;0.32;;;2.80;99.10;;;;;;4975779;28;20208;-62
2023/12/08 01:37:09;;;;;;;0.40;0.40;;;2.80;98.80;;;;;;4975891;28;20232;-61
2023/12/08 01:39:34;;;;;;;0.40;0.40;;;2.80;98.70;;;;;;4975771;28;20423;-61
2023/12/08 01:42:00;;;;;;;0.40;0.40;;;2.80;98.90;;;;;;4975528;28;20169;-61
2023/12/08 01:44:26;;;;;;;0.40;0.40;;;2.80;99.10;;;;;;4975923;28;20212;-61
2023/12/08 01:46:52;;;;;;;0.50;0.50;;;2.70;99.30;;;;;;4975723;28;20717;-61
2023/12/08 01:49:18;;;;;;;0.50;0.50;;;2.80;99.40;;;;;;4975667;28;20192;-61
2023/12/08 01:51:45;;;;;;;0.38;0.38;;;2.80;99.40;;;;;;4975386;28;20247;-61
2023/12/08 01:54:12;;;;;;;0.40;0.40;;;2.90;99.40;;;;;;4975552;28;20224;-61
2023/12/08 01:56:38;;;;;;;0.40;0.40;;;3.00;99.30;;;;;;4975584;28;20249;-61
2023/12/08 01:59:04;;;;;;;0.40;0.40;;;3.00;99.30;;;;;;4975466;28;20192;-61
2023/12/08 02:01:30;;;;;;;0.60;0.60;;;3.10;99.20;;;;;;4975117;28;20177;-62
2023/12/08 02:03:56;;;;;;;0.40;0.40;;;3.20;99.10;;;;;;4975383;28;20184;-61
2023/12/08 02:06:22;;;;;;;0.40;0.40;;;3.10;99.10;;;;;;4975453;28;20177;-61
2023/12/08 02:08:48;;;;;;;0.40;0.40;;;3.10;99.20;;;;;;4975350;28;20216;-61
2023/12/08 02:11:14;;;;;;;0.40;0.40;;;3.10;99.10;;;;;;4975113;28;20180;-61
2023/12/08 02:13:41;;;;;;;0.30;0.30;;;3.00;99.10;;;;;;4975161;28;20200;-61
2023/12/08 02:16:23;;;;;;;0.40;0.40;;;2.90;99.20;;;;;;4975129;28;20404;-61
2023/12/08 02:18:50;;;;;;;0.35;0.35;;;3.00;99.50;;;;;;4974919;28;20662;-61
2023/12/08 02:21:17;;;;;;;2.45;1.00;;;3.10;99.40;;;;;;4974449;28;20177;-61
2023/12/08 02:23:47;;;;;;;0.40;0.40;;;3.20;99.30;;;;;;4975065;28;20169;-61
2023/12/08 02:26:13;;;;;;;0.40;0.40;;;3.00;99.30;;;;;;4975037;28;20312;-61
2023/12/08 02:28:38;;;;;;;0.40;0.40;;;3.10;99.60;;;;;;4974809;28;20283;-61
2023/12/08 02:31:09;;;;;;;0.40;0.40;;;3.20;99.50;;;;;;4974609;28;20180;-61
2023/12/08 02:33:37;;;;;;;0.40;0.40;;;3.20;99.40;;;;;;4974865;28;20643;-61
2023/12/08 02:36:05;;;;;;;0.30;0.30;;;3.30;99.10;;;;;;4974817;28;20188;-61
2023/12/08 02:38:32;;;;;;;0.40;0.40;;;3.20;98.90;;;;;;4974733;28;20189;-61
2023/12/08 02:40:58;;;;;;;0.40;0.40;;;3.20;99.00;;;;;;4974452;28;20173;-61
2023/12/08 02:43:24;;;;;;;0.50;0.50;;;3.10;99.10;;;;;;4974772;28;20177;-61
2023/12/08 02:45:50;;;;;;;0.40;0.40;;;3.20;99.30;;;;;;4975143;28;20188;-61
2023/12/08 02:48:16;;;;;;;0.30;0.30;;;3.20;99.30;;;;;;4974516;28;20206;-61
2023/12/08 02:50:43;;;;;;;0.40;0.40;;;3.30;99.00;;;;;;4974301;28;20177;-61
2023/12/08 02:53:08;;;;;;;0.32;0.32;;;3.30;98.90;;;;;;4974625;28;20548;-61
2023/12/08 02:55:34;;;;;;;0.40;0.40;;;3.30;98.80;;;;;;4974425;28;20180;-61
2023/12/08 02:58:00;;;;;;;0.50;0.50;;;3.20;98.70;;;;;;4974392;28;20201;-61
2023/12/08 03:00:26;;;;;;;0.30;0.30;;;3.10;98.90;;;;;;4974111;28;20173;-61
2023/12/08 03:02:51;;;;;;;0.40;0.40;;;3.10;99.10;;;;;;4974398;28;20191;-60
2023/12/08 03:05:17;;;;;;;0.40;0.40;;;3.10;99.10;;;;;;4974457;28;20173;-61
2023/12/08 03:07:43;;;;;;;1.30;0.57;;;3.00;99.10;;;;;;4974242;28;20165;-61
2023/12/08 03:10:09;;;;;;;0.40;0.40;;;3.00;99.40;;;;;;4973892;28;20188;-61
2023/12/08 03:12:35;;;;;;;0.73;0.63;;;3.10;99.40;;;;;;4974273;28;20506;-61
2023/12/08 03:15:00;;;;;;;0.40;0.40;;;3.20;99.30;;;;;;4974102;28;20279;-61
2023/12/08 03:17:26;;;;;;;0.40;0.40;;;3.10;99.10;;;;;;4974117;28;20538;-61
2023/12/08 03:19:51;;;;;;;0.40;0.40;;;3.20;99.30;;;;;;4973739;28;20204;-62
2023/12/08 03:22:17;;;;;;;0.40;0.40;;;3.30;99.20;;;;;;4973932;28;20196;-61
2023/12/08 03:24:43;;;;;;;0.40;0.40;;;3.30;99.10;;;;;;4974678;28;20209;-61
2023/12/08 03:27:08;;;;;;;0.40;0.40;;;3.30;99.00;;;;;;4973955;28;20181;-61
2023/12/08 03:29:39;;;;;;;1.07;0.50;;;3.30;99.10;;;;;;4973787;28;20193;-61
2023/12/08 03:32:06;;;;;;;0.60;0.60;;;3.30;99.30;;;;;;4973619;28;20231;-61
2023/12/08 03:34:31;;;;;;;0.30;0.30;;;3.30;99.30;;;;;;4972974;28;20295;-61
2023/12/08 03:36:57;;;;;;;0.60;0.60;;;3.40;99.30;;;;;;4973728;28;20280;-61
2023/12/08 03:39:22;;;;;;;0.40;0.40;;;3.40;99.60;;;;;;4973571;28;20188;-61
2023/12/08 03:41:48;;;;;;;0.40;0.40;;;3.20;99.30;;;;;;4973321;28;20204;-61
2023/12/08 03:44:14;;;;;;;0.60;0.60;;;3.20;99.50;;;;;;4973635;28;20173;-61
2023/12/08 03:46:42;;;;;;;0.30;0.30;;;3.30;99.60;;;;;;4972404;28;20211;-61
2023/12/08 03:49:08;;;;;;;0.30;0.30;;;3.40;99.50;;;;;;4973134;28;20455;-61
2023/12/08 03:51:34;;;;;;;0.30;0.30;;;3.50;99.50;;;;;;4973256;28;20204;-61
2023/12/08 03:53:59;;;;;;;0.30;0.30;;;3.50;99.50;;;;;;4973465;28;20205;-61
2023/12/08 03:56:25;;;;;;;0.60;0.60;;;3.50;99.50;;;;;;4973422;28;20251;-61
2023/12/08 03:58:51;;;;;;;0.60;0.60;;;3.40;99.60;;;;;;4973317;28;20201;-61
2023/12/08 04:01:17;;;;;;;0.40;0.40;;;3.40;99.70;;;;;;4972967;28;20926;-61
2023/12/08 04:03:43;;;;;;;0.50;0.45;;;3.50;99.90;;;;;;4973152;28;20188;-61
2023/12/08 04:06:08;;;;;;;0.73;0.50;;;3.50;99.80;;;;;;4973253;28;20572;-61
2023/12/08 04:08:34;;;;;;;0.37;0.37;;;3.60;99.80;;;;;;4973005;28;20201;-62
2023/12/08 04:11:00;;;;;;;0.40;0.40;;;3.70;99.90;;;;;;4972893;28;20177;-61
2023/12/08 04:13:25;;;;;;;0.30;0.30;;;3.70;99.90;;;;;;4973192;28;20209;-61
2023/12/08 04:15:51;;;;;;;0.37;0.37;;;3.80;99.90;;;;;;4973074;28;20173;-61
2023/12/08 04:18:16;;;;;;;0.40;0.40;;;3.70;99.90;;;;;;4972890;28;20263;-61
2023/12/08 04:20:42;;;;;;;0.40;0.40;;;3.70;99.90;;;;;;4972932;28;20553;-61
2023/12/08 04:23:08;;;;;;;0.40;0.40;;;3.80;99.90;;;;;;4973030;28;20639;-61
2023/12/08 04:25:34;;;;;;;0.50;0.50;;;3.80;99.90;;;;;;4973067;28;20272;-61
2023/12/08 04:28:00;;;;;;;0.82;0.80;;;3.80;99.90;;;;;;4972941;28;20193;-61
2023/12/08 04:30:25;;;;;;;0.30;0.30;;;3.70;99.90;;;;;;4972646;28;20180;-61
2023/12/08 04:32:51;;;;;;;0.40;0.40;;;3.70;99.90;;;;;;4973176;28;20413;-61
2023/12/08 04:35:17;;;;;;;0.43;0.43;;;3.70;99.90;;;;;;4973115;28;20216;-61
2023/12/08 04:37:42;;;;;;;0.60;0.50;;;3.80;99.90;;;;;;4972911;28;20169;-62
2023/12/08 04:40:09;;;;;;;0.50;0.50;;;4.00;99.90;;;;;;4972687;28;20498;-61
2023/12/08 04:42:36;;;;;;;0.50;0.50;;;4.00;99.90;;;;;;4972994;28;20549;-61
2023/12/08 04:45:02;;;;;;;0.45;0.45;;;4.10;99.90;;;;;;4972727;28;20185;-61
2023/12/08 04:47:28;;;;;;;0.47;0.47;;;4.10;99.90;;;;;;4972906;28;20599;-61
2023/12/08 04:49:54;;;;;;;0.30;0.30;;;4.10;99.90;;;;;;4972953;28;20193;-61
2023/12/08 04:52:20;;;;;;;0.70;0.70;;;4.10;99.90;;;;;;4972885;28;20188;-61
2023/12/08 04:54:45;;;;;;;0.90;0.90;;;4.10;99.90;;;;;;4972896;28;20448;-61
2023/12/08 04:57:11;;;;;;;0.40;0.40;;;4.10;99.90;;;;;;4972903;28;20180;-61
2023/12/08 04:59:38;;;;;;;0.40;0.40;;;4.20;99.90;;;;;;4972772;28;20200;-61
2023/12/08 05:02:04;;;;;;;0.40;0.40;;;4.30;99.90;;;;;;4972585;28;20185;-61
2023/12/08 05:04:30;;;;;;;0.40;0.40;;;4.30;99.90;;;;;;4972844;28;20260;-61
2023/12/08 05:06:55;;;;;;;0.60;0.40;;;4.30;99.90;;;;;;4972818;28;20259;-61
2023/12/08 05:09:21;;;;;;;0.40;0.40;;;4.30;99.90;;;;;;4972734;28;20223;-61
2023/12/08 05:11:47;;;;;;;0.40;0.40;;;4.30;99.90;;;;;;4972608;28;20639;-61
2023/12/08 05:14:13;;;;;;;0.30;0.30;;;4.30;99.90;;;;;;4972583;28;20296;-61
2023/12/08 05:16:39;;;;;;;0.70;0.70;;;4.30;99.90;;;;;;4972931;28;20180;-61
2023/12/08 05:19:04;;;;;;;0.50;0.50;;;4.40;99.90;;;;;;4972741;28;20687;-61
2023/12/08 05:21:30;;;;;;;5.03;1.47;;;4.40;99.90;;;;;;4972357;28;20169;-61
2023/12/08 05:23:56;;;;;;;0.93;0.93;;;4.40;99.90;;;;;;4972719;28;20524;-61
2023/12/08 05:26:23;;;;;;;0.70;0.70;;;4.40;99.90;;;;;;4972706;28;20173;-61
2023/12/08 05:28:49;;;;;;;0.60;0.60;;;4.30;99.90;;;;;;4972429;28;20198;-61
2023/12/08 05:31:14;;;;;;;0.50;0.50;;;4.40;99.90;;;;;;4972579;28;20258;-61
2023/12/08 05:33:40;;;;;;;0.40;0.40;;;4.40;99.90;;;;;;4972551;28;20706;-61
2023/12/08 05:36:06;;;;;;;0.70;0.70;;;4.50;99.90;;;;;;4972582;28;20174;-60
2023/12/08 05:38:32;;;;;;;0.70;0.70;;;4.50;99.90;;;;;;4972393;28;20215;-60
2023/12/08 05:40:57;;;;;;;0.70;0.47;;;4.50;99.90;;;;;;4972200;28;20173;-61
2023/12/08 05:43:23;;;;;;;0.40;0.40;;;4.60;99.90;;;;;;4972410;28;20201;-61
2023/12/08 05:45:49;;;;;;;0.40;0.40;;;4.60;99.90;;;;;;4972437;28;20184;-61
2023/12/08 05:48:14;;;;;;;0.63;0.63;;;4.60;99.90;;;;;;4972342;28;20200;-61
2023/12/08 05:50:40;;;;;;;0.70;0.70;;;4.60;99.90;;;;;;4972164;28;20252;-61
2023/12/08 05:53:06;;;;;;;0.70;0.70;;;4.60;99.90;;;;;;4972378;28;20208;-61
2023/12/08 05:55:32;;;;;;;0.85;0.85;;;4.60;99.90;;;;;;4972416;28;20170;-61
2023/12/08 05:57:57;;;;;;;0.50;0.50;;;4.60;99.90;;;;;;4975128;28;20193;-61
2023/12/08 06:00:23;;;;;;;0.40;0.40;;;4.60;99.90;;;;;;4975494;28;20613;-61
2023/12/08 06:02:48;;;;;;;0.73;0.67;;;4.60;99.90;;;;;;4975229;28;20169;-61
2023/12/08 06:05:15;;;;;;;1.17;0.70;;;4.70;99.90;;;;;;4975744;28;20173;-61
2023/12/08 06:07:41;;;;;;;0.40;0.40;;;4.70;99.90;;;;;;4975696;28;20183;-61
2023/12/08 06:10:13;;;;;;;0.80;0.80;;;4.70;99.90;;;;;;4975401;28;20651;-61
2023/12/08 06:12:39;;;;;;;0.95;0.82;;;4.60;99.90;;;;;;4974973;28;20416;-61
2023/12/08 06:15:06;;;;;;;0.50;0.50;;;4.70;99.90;;;;;;4975465;28;20232;-61
2023/12/08 06:17:32;;;;;;;0.30;0.30;;;4.70;99.90;;;;;;4975496;28;20184;-61
2023/12/08 06:19:58;;;;;;;0.50;0.50;;;4.70;99.90;;;;;;4975150;28;20217;-62
2023/12/08 06:22:24;;;;;;;0.70;0.70;;;4.60;99.90;;;;;;4975416;28;20169;-61
2023/12/08 06:24:49;;;;;;;1.63;0.87;;;4.60;99.90;;;;;;4975346;28;20201;-62
2023/12/08 06:27:15;;;;;;;0.50;0.50;;;4.70;99.90;;;;;;4973427;28;20267;-63
2023/12/08 06:29:41;;;;;;;0.30;0.30;;;4.60;99.90;;;;;;4974983;28;20685;-51
2023/12/08 06:32:07;;;;;;;1.10;1.10;;;4.80;99.90;;;;;;4974850;28;20413;-56
2023/12/08 06:34:33;;;;;;;0.33;0.33;;;5.60;99.90;;;;;;4975193;28;20585;-56
2023/12/08 06:36:58;;;;;;;0.60;0.60;;;6.50;99.90;;;;;;4975137;28;20231;-63
2023/12/08 06:39:24;;;;;;;1.10;0.60;;;7.30;99.90;;;;;;4975067;28;20204;-63
2023/12/08 06:41:52;;;;;;;0.87;0.87;;;7.70;98.40;;;;;;4972729;28;20650;-62
2023/12/08 06:44:18;;;;;;;0.60;0.60;;;7.60;97.10;;;;;;4974967;28;20419;-63
2023/12/08 06:46:43;;;;;;;0.43;0.43;;;7.20;96.40;;;;;;4993665;28;20196;-62
2023/12/08 06:49:09;;;;;;;0.30;0.30;;;6.90;96.20;;;;;;4994330;28;20198;-62
2023/12/08 06:51:35;;;;;;;1.23;1.23;;;6.50;96.20;;;;;;4973312;28;20183;-63
2023/12/08 06:54:02;;;;;;;0.40;0.40;;;6.20;96.40;;;;;;4971671;28;20200;-63
2023/12/08 06:56:29;;;;;;;0.40;0.40;;;5.90;96.90;;;;;;4974348;28;20203;-63
2023/12/08 06:58:55;;;;;;;0.52;0.52;;;5.70;97.20;;;;;;4973600;28;20192;-63
2023/12/08 07:01:21;;;;;;;0.40;0.40;;;5.60;97.60;;;;;;4973163;28;20604;-63
2023/12/08 07:03:49;;;;;;;1.03;1.03;;;5.50;97.70;;;;;;4974607;28;20414;-62
2023/12/08 07:06:15;;;;;;;0.80;0.80;;;5.30;97.90;;;;;;4974517;28;20419;-62
2023/12/08 07:08:41;;;;;;;0.40;0.40;;;5.30;98.20;;;;;;4973273;28;20193;-62
2023/12/08 07:11:08;;;;;;;0.40;0.40;;;5.20;98.50;;;;;;4974024;28;20554;-63
2023/12/08 07:13:34;;;;;;;0.40;0.40;;;5.10;98.60;;;;;;4974490;28;20200;-62
2023/12/08 07:15:59;;;;;;;0.40;0.40;;;5.00;98.60;;;;;;4972482;28;20187;-62
2023/12/08 07:18:25;;;;;;;0.30;0.30;;;5.00;98.90;;;;;;4973567;28;20213;-62
2023/12/08 07:20:51;;;;;;;0.57;0.57;;;5.00;99.10;;;;;;4974021;28;20186;-62
2023/12/08 07:23:16;;;;;;;0.70;0.70;;;4.90;99.10;;;;;;4974202;28;20177;-62
2023/12/08 07:25:42;;;;;;;0.50;0.50;;;4.90;99.30;;;;;;4974045;28;20196;-62
2023/12/08 07:28:08;;;;;;;0.40;0.40;;;4.80;99.40;;;;;;4974163;28;20284;-62
2023/12/08 07:30:33;;;;;;;0.40;0.40;;;4.80;99.60;;;;;;4973762;28;20402;-62
2023/12/08 07:32:59;;;;;;;0.40;0.40;;;4.80;99.70;;;;;;4974001;28;20170;-62
2023/12/08 07:35:25;;;;;;;0.40;0.40;;;4.80;99.70;;;;;;4973921;28;20203;-62
2023/12/08 07:37:51;;;;;;;0.37;0.37;;;4.80;99.80;;;;;;4973785;28;20169;-62
2023/12/08 07:40:17;;;;;;;0.40;0.40;;;4.90;99.70;;;;;;4973473;28;20257;-62
2023/12/08 07:42:43;;;;;;;0.40;0.40;;;4.90;99.60;;;;;;4974049;28;20264;-61
2023/12/08 07:45:09;;;;;;;0.40;0.40;;;4.90;99.70;;;;;;4973771;28;20208;-62
2023/12/08 07:47:35;;;;;;;0.40;0.40;;;4.90;99.60;;;;;;4973811;28;20191;-62
2023/12/08 07:50:00;;;;;;;0.30;0.30;;;4.90;99.60;;;;;;4973483;28;20181;-62
2023/12/08 07:52:26;;;;;;;0.60;0.50;;;5.00;99.70;;;;;;4973682;28;20183;-62
2023/12/08 07:54:52;;;;;;;0.43;0.43;;;4.90;99.70;;;;;;4973429;28;20231;-62
2023/12/08 07:57:18;;;;;;;0.30;0.30;;;5.00;99.70;;;;;;4973609;28;20172;-62
2023/12/08 07:59:44;;;;;;;0.38;0.38;;;5.10;99.50;;;;;;4973365;28;20231;-62
2023/12/08 08:02:11;;;;;;;0.45;0.45;;;5.10;99.40;;;;;;4973168;28;20205;-62
2023/12/08 08:04:37;;;;;;;1.60;1.50;;;5.00;99.40;;;;;;4973477;28;20204;-62
2023/12/08 08:07:02;;;;;;;0.77;0.47;;;4.90;99.50;;;;;;4972028;28;20184;-62
2023/12/08 08:09:28;;;;;;;1.07;0.70;;;5.00;99.70;;;;;;4973153;28;20583;-62
2023/12/08 08:11:54;;;;;;;0.40;0.40;;;5.00;99.70;;;;;;4973065;28;20174;-62
2023/12/08 08:14:20;;;;;;;0.80;0.80;;;5.10;99.60;;;;;;4973238;28;20247;-62
2023/12/08 08:16:50;;;;;;;0.40;0.40;;;5.10;99.70;;;;;;4973276;28;20588;-62
2023/12/08 08:19:15;;;;;;;0.38;0.38;;;5.10;99.70;;;;;;4972720;28;20212;-62
2023/12/08 08:21:41;;;;;;;0.50;0.50;;;5.10;99.70;;;;;;4972867;28;20170;-63
2023/12/08 08:24:07;;;;;;;0.30;0.30;;;5.10;99.70;;;;;;4973164;28;20203;-62
2023/12/08 08:26:33;;;;;;;0.30;0.30;;;5.10;99.70;;;;;;4973306;28;20416;-62
2023/12/08 08:28:58;;;;;;;0.40;0.40;;;5.20;99.80;;;;;;4973045;28;20863;-62
2023/12/08 08:31:24;;;;;;;0.60;0.60;;;5.20;99.70;;;;;;4972749;28;20177;-62
2023/12/08 08:33:49;;;;;;;1.23;0.70;;;5.20;99.60;;;;;;4972927;28;20675;-62
2023/12/08 08:36:15;;;;;;;0.70;0.70;;;5.20;99.50;;;;;;4972931;28;20184;-62
2023/12/08 08:38:41;;;;;;;0.30;0.30;;;5.30;99.30;;;;;;4972893;28;20328;-63
2023/12/08 08:41:07;;;;;;;0.60;0.60;;;5.30;99.40;;;;;;4972690;28;20200;-62
2023/12/08 08:43:32;;;;;;;0.70;0.53;;;5.30;99.40;;;;;;4972967;28;20177;-62
2023/12/08 08:45:58;;;;;;;0.50;0.50;;;5.20;99.30;;;;;;4972932;28;20426;-62
2023/12/08 08:48:24;;;;;;;0.40;0.40;;;5.20;99.30;;;;;;4972742;28;20196;-62
2023/12/08 08:50:49;;;;;;;0.40;0.40;;;5.20;99.40;;;;;;4973092;28;20178;-62
2023/12/08 08:53:16;;;;;;;0.57;0.57;;;5.30;99.50;;;;;;4972699;28;20192;-62
2023/12/08 08:55:42;;;;;;;0.55;0.55;;;5.30;99.50;;;;;;4972898;28;20534;-63
2023/12/08 08:58:08;;;;;;;0.50;0.50;;;5.30;99.30;;;;;;4972769;28;20262;-62
2023/12/08 09:00:34;;;;;;;1.43;1.07;;;5.40;99.10;;;;;;4972625;28;20204;-62
2023/12/08 09:03:01;;;;;;;0.40;0.40;;;5.40;99.10;;;;;;4972784;28;20167;-63
2023/12/08 09:05:27;;;;;;;0.40;0.40;;;5.40;99.30;;;;;;4972747;28;20193;-63
2023/12/08 09:07:53;;;;;;;0.40;0.40;;;5.40;99.30;;;;;;4972578;28;20260;-62
2023/12/08 09:10:19;;;;;;;0.40;0.40;;;5.40;99.30;;;;;;4972348;28;20206;-61
2023/12/08 09:12:45;;;;;;;1.33;1.20;;;5.50;99.40;;;;;;4972704;28;20181;-63
2023/12/08 09:15:12;;;;;;;0.40;0.40;;;5.50;99.10;;;;;;4972568;28;20456;-62
2023/12/08 09:17:38;;;;;;;0.35;0.35;;;5.60;99.00;;;;;;4972435;28;20250;-61
2023/12/08 09:20:08;;;;;;;0.57;0.57;;;5.60;98.90;;;;;;4972194;28;20181;-61
2023/12/08 09:22:35;;;;;;;0.30;0.30;;;5.60;98.90;;;;;;4972779;28;20181;-61
2023/12/08 09:25:01;;;;;;;0.50;0.50;;;5.60;99.00;;;;;;4972500;28;20179;-61
2023/12/08 09:27:27;;;;;;;0.40;0.40;;;5.60;98.90;;;;;;4972523;28;20590;-61
2023/12/08 09:29:52;;;;;;;0.80;0.70;;;5.60;98.70;;;;;;4972254;28;20229;-63
2023/12/08 09:32:19;;;;;;;0.40;0.40;;;5.60;98.80;;;;;;4974463;28;20179;-63
2023/12/08 09:34:44;;;;;;;0.68;0.68;;;5.60;98.90;;;;;;4976048;28;20631;-63
2023/12/08 09:37:10;;;;;;;2.10;2.00;;;5.50;98.90;;;;;;4976085;28;20170;-63
2023/12/08 09:39:36;;;;;;;11.40;1.70;;;5.50;99.00;;;;;;4976071;28;20247;-64
2023/12/08 09:42:07;;;;;;;0.63;0.63;;;5.50;99.10;;;;;;4975782;28;20183;-63
2023/12/08 09:44:33;;;;;;;0.73;0.73;;;5.60;99.20;;;;;;4976161;28;20195;-63
2023/12/08 09:47:03;;;;;;;2.78;1.77;;;5.60;99.10;;;;;;4976279;28;20655;-63
2023/12/08 09:49:30;;;;;;;0.68;0.68;;;5.60;99.10;;;;;;4975827;28;20711;-63
2023/12/08 09:51:56;;;;;;;0.70;0.70;;;5.60;99.10;;;;;;4975609;28;20610;-63
2023/12/08 09:54:23;;;;;;;1.00;0.95;;;5.60;99.10;;;;;;4975841;28;20211;-63
2023/12/08 09:56:52;;;;;;;0.30;0.30;;;5.70;98.90;;;;;;4975830;28;20201;-63
2023/12/08 09:59:24;;;;;;;1.40;1.30;;;5.70;99.00;;;;;;4975865;28;20199;-63
2023/12/08 10:01:50;;;;;;;0.65;0.65;;;5.70;98.90;;;;;;4975404;28;20542;-63
2023/12/08 10:04:16;;;;;;;0.40;0.40;;;5.70;99.00;;;;;;4975722;28;20211;-63
2023/12/08 10:06:42;;;;;;;0.73;0.70;;;5.80;99.00;;;;;;4975442;28;20183;-63
2023/12/08 10:09:10;;;;;;;1.33;1.15;;;5.80;99.10;;;;;;4975485;28;20847;-64
2023/12/08 10:11:36;;;;;;;0.52;0.52;;;5.80;98.90;;;;;;4975284;28;20176;-64
2023/12/08 10:14:02;;;;;;;0.40;0.40;;;5.90;98.90;;;;;;4975442;28;20201;-64
2023/12/08 10:16:28;;;;;;;0.40;0.40;;;5.90;98.90;;;;;;4975173;28;20631;-64
2023/12/08 10:19:06;;;;;;;0.60;0.60;;;6.00;98.50;;;;;;4975025;28;20887;-64
2023/12/08 10:21:36;;;;;;;1.13;1.08;;;6.00;98.50;;;;;;4974992;28;20415;-64
2023/12/08 10:24:02;;;;;;;0.40;0.40;;;6.10;98.60;;;;;;4975374;28;20187;-63
2023/12/08 10:26:32;;;;;;;0.40;0.40;;;6.10;98.70;;;;;;4975140;28;20188;-63
2023/12/08 10:28:59;;;;;;;0.30;0.30;;;6.20;98.50;;;;;;4975204;28;20205;-63
2023/12/08 10:31:26;;;;;;;0.30;0.30;;;6.20;98.60;;;;;;4973895;28;20169;-63
2023/12/08 10:33:55;;;;;;;0.60;0.60;;;6.20;98.60;;;;;;4975112;28;20196;-63
2023/12/08 10:36:21;;;;;;;2.05;1.95;;;6.20;98.40;;;;;;4974941;28;20189;-63
2023/12/08 10:38:47;;;;;;;1.93;1.43;;;6.20;98.40;;;;;;4975022;28;20244;-63
2023/12/08 10:41:14;;;;;;;0.85;0.85;;;6.20;98.50;;;;;;4974715;28;20184;-63
2023/12/08 10:43:40;;;;;;;2.97;1.58;;;6.30;98.50;;;;;;4974735;28;20191;-63
2023/12/08 10:46:07;;;;;;;1.65;1.40;;;6.30;98.50;;;;;;4974983;28;20615;-63
2023/12/08 10:48:34;;;;;;;2.13;1.92;;;6.30;98.80;;;;;;4974711;28;20201;-63
2023/12/08 10:51:00;;;;;;;3.58;3.22;;;6.40;98.50;;;;;;4974511;28;20187;-63
2023/12/08 10:53:26;;;;;;;2.85;1.58;;;6.40;98.40;;;;;;4974768;28;20185;-63
2023/12/08 10:56:06;;;;;;;11.07;1.67;;;6.40;98.70;;;;;;4974767;28;20180;-63
2023/12/08 10:58:35;;;;;;;1.67;1.60;;;6.40;98.30;;;;;;4974721;28;20193;-63
2023/12/08 11:01:07;;;;;;;0.75;0.75;;;6.40;98.20;;;;;;4974350;28;20192;-63
2023/12/08 11:03:34;;;;;;;0.73;0.73;;;6.30;98.00;;;;;;4974589;28;20617;-63
2023/12/08 11:06:11;;;;;;;0.50;0.50;;;6.20;98.00;;;;;;4974532;28;20260;-63
2023/12/08 11:08:43;;;;;;;1.23;1.13;;;6.30;98.30;;;;;;4974313;28;20294;-63
2023/12/08 11:11:10;;;;;;;0.50;0.50;;;6.30;98.10;;;;;;4974088;28;20180;-63
2023/12/08 11:13:40;;;;;;;0.30;0.30;;;6.30;98.10;;;;;;4974342;28;20204;-63
2023/12/08 11:16:09;;;;;;;0.35;0.35;;;6.30;98.20;;;;;;4974332;28;20179;-63
2023/12/08 11:18:37;;;;;;;0.75;0.60;;;6.30;98.20;;;;;;4974161;28;20232;-63
2023/12/08 11:21:07;;;;;;;1.75;1.65;;;6.30;98.20;;;;;;4973874;28;20171;-63
2023/12/08 11:23:38;;;;;;;1.35;0.90;;;6.30;98.20;;;;;;4974224;28;20685;-63
2023/12/08 11:26:39;;;;;;;1.98;1.63;;;6.30;98.20;;;;;;4974354;28;20187;-63
2023/12/08 11:29:12;;;;;;;1.17;1.17;;;6.30;98.20;;;;;;4974204;28;20247;-63
2023/12/08 11:31:56;;;;;;;1.20;0.85;;;6.40;98.30;;;;;;4974058;28;20188;-63
2023/12/08 11:34:37;;;;;;;0.60;0.60;;;6.40;98.40;;;;;;4973899;28;20685;-64
2023/12/08 11:37:06;;;;;;;0.70;0.70;;;6.40;98.40;;;;;;4973964;28;20573;-63
2023/12/08 11:39:35;;;;;;;1.17;1.17;;;6.50;98.40;;;;;;4973690;28;20192;-64
2023/12/08 11:42:06;;;;;;;2.70;2.47;;;6.50;98.20;;;;;;4973412;28;20199;-64
2023/12/08 11:44:58;;;;;;;0.90;0.90;;;6.50;98.00;;;;;;4973400;28;20649;-64
2023/12/08 11:47:25;;;;;;;2.33;1.00;;;6.60;98.00;;;;;;4971690;28;20192;-64
2023/12/08 11:49:53;;;;;;;0.70;0.70;;;6.50;98.00;;;;;;4973332;28;20204;-64
2023/12/08 11:52:33;;;;;;;0.70;0.70;;;6.50;97.90;;;;;;4973064;28;20218;-64
2023/12/08 11:57:46;;;;;;;0.95;0.70;;;6.50;97.80;;;;;;4973274;28;20196;-64
2023/12/08 12:00:21;;;;;;;0.50;0.50;;;6.50;97.80;;;;;;4972707;28;20172;-64
2023/12/08 12:02:48;;;;;;;0.50;0.50;;;6.40;97.80;;;;;;4973389;28;20187;-64
2023/12/08 12:05:14;;;;;;;0.50;0.50;;;6.40;97.80;;;;;;4973321;28;20222;-64
2023/12/08 12:07:40;;;;;;;5.10;2.53;;;6.30;97.80;;;;;;4972961;28;20188;-64
2023/12/08 12:10:10;;;;;;;1.60;1.30;;;6.30;98.00;;;;;;4972960;28;20408;-63
2023/12/08 12:12:40;;;;;;;6.03;3.13;;;6.20;98.10;;;;;;4972014;28;20184;-64
2023/12/08 12:15:08;;;;;;;1.33;1.27;;;6.20;98.20;;;;;;4973182;28;20203;-64
2023/12/08 12:17:34;;;;;;;1.70;0.75;;;6.20;98.10;;;;;;4973290;28;20176;-64
2023/12/08 12:20:00;;;;;;;2.97;2.10;;;6.20;98.10;;;;;;4972659;28;20206;-64
2023/12/08 12:22:26;;;;;;;0.85;0.80;;;6.20;98.10;;;;;;4973015;28;20917;-64
2023/12/08 12:24:53;;;;;;;1.17;1.07;;;6.20;98.10;;;;;;4973157;28;20238;-64
2023/12/08 12:27:18;;;;;;;2.13;0.63;;;6.20;98.20;;;;;;4972607;28;20184;-64
2023/12/08 12:29:46;;;;;;;0.50;0.50;;;6.10;98.30;;;;;;4973083;28;20206;-64
2023/12/08 12:32:12;;;;;;;0.40;0.40;;;6.10;98.30;;;;;;4972715;28;20412;-63
2023/12/08 12:34:38;;;;;;;0.83;0.77;;;6.20;98.30;;;;;;4973086;28;20215;-64
2023/12/08 12:37:08;;;;;;;1.58;1.35;;;6.20;98.20;;;;;;4973039;28;20180;-64
2023/12/08 12:39:34;;;;;;;0.88;0.88;;;6.20;98.20;;;;;;4972583;28;20212;-65
2023/12/08 12:42:06;;;;;;;0.40;0.40;;;6.20;98.40;;;;;;4972629;28;20267;-64
2023/12/08 12:44:47;;;;;;;1.08;0.63;;;6.30;98.40;;;;;;4972908;28;20184;-65
2023/12/08 12:47:20;;;;;;;1.10;1.00;;;6.30;98.40;;;;;;4972749;28;20210;-65
2023/12/08 12:50:05;;;;;;;2.45;1.08;;;6.40;98.40;;;;;;4972925;28;20208;-65
2023/12/08 12:52:34;;;;;;;1.75;1.65;;;6.40;98.30;;;;;;4972805;28;20599;-65
2023/12/08 12:55:01;;;;;;;0.40;0.40;;;6.40;98.30;;;;;;4972631;28;20218;-65
2023/12/08 12:57:48;;;;;;;2.72;1.27;;;6.50;98.40;;;;;;4972704;28;20176;-66
2023/12/08 13:00:15;;;;;;;1.00;0.57;;;6.50;98.60;;;;;;4970772;28;20183;-65